sensor_id;sensor_type;location;lat;lon;timestamp;P1;P2;P0
64138;PMS5003;50435;43.700;-79.318;2023-01-10T00:01:39;25;24;
64138;PMS5003;50435;43.700;-79.318;2023-01-10T00:04:06;32;29;
64138;PMS5003;50435;43.700;-79.318;2023-01-10T00:06:34;29;25;
64138;PMS5003;50435;43.700;-79.318;2023-01-10T00:09:02;30;27;
64138;PMS5003;50435;43.700;-79.318;2023-01-10T00:11:29;33;27;
64138;PMS5003;50435;43.700;-79.318;2023-01-10T00:13:57;30;29;
64138;PMS5003;50435;43.700;-79.318;2023-01-10T00:16:25;32;30;
64138;PMS5003;50435;43.700;-79.318;2023-01-10T00:18:52;26;25;
64138;PMS5003;50435;43.700;-79.318;2023-01-10T00:21:20;32;30;
64138;PMS5003;50435;43.700;-79.318;2023-01-10T00:23:47;30;26;
64138;PMS5003;50435;43.700;-79.318;2023-01-10T00:26:15;30;27;
64138;PMS5003;50435;43.700;-79.318;2023-01-10T00:28:42;27;27;
64138;PMS5003;50435;43.700;-79.318;2023-01-10T00:31:09;28;24;
64138;PMS5003;50435;43.700;-79.318;2023-01-10T00:33:37;30;26;
64138;PMS5003;50435;43.700;-79.318;2023-01-10T00:36:06;26;22;
64138;PMS5003;50435;43.700;-79.318;2023-01-10T00:38:35;25;24;
64138;PMS5003;50435;43.700;-79.318;2023-01-10T00:41:03;31;30;
64138;PMS5003;50435;43.700;-79.318;2023-01-10T00:43:30;36;29;
64138;PMS5003;50435;43.700;-79.318;2023-01-10T00:45:57;33;30;
64138;PMS5003;50435;43.700;-79.318;2023-01-10T00:48:25;29;27;
64138;PMS5003;50435;43.700;-79.318;2023-01-10T00:50:53;31;30;
64138;PMS5003;50435;43.700;-79.318;2023-01-10T00:53:20;39;32;
64138;PMS5003;50435;43.700;-79.318;2023-01-10T00:55:48;31;27;
64138;PMS5003;50435;43.700;-79.318;2023-01-10T00:58:16;33;29;
64138;PMS5003;50435;43.700;-79.318;2023-01-10T01:00:43;31;26;
64138;PMS5003;50435;43.700;-79.318;2023-01-10T01:03:11;31;31;
64138;PMS5003;50435;43.700;-79.318;2023-01-10T01:05:39;37;30;
64138;PMS5003;50435;43.700;-79.318;2023-01-10T01:08:07;34;31;
64138;PMS5003;50435;43.700;-79.318;2023-01-10T01:10:34;33;27;
64138;PMS5003;50435;43.700;-79.318;2023-01-10T01:13:06;31;29;
64138;PMS5003;50435;43.700;-79.318;2023-01-10T01:15:35;27;25;
64138;PMS5003;50435;43.700;-79.318;2023-01-10T01:18:03;38;30;
64138;PMS5003;50435;43.700;-79.318;2023-01-10T01:20:31;38;32;
64138;PMS5003;50435;43.700;-79.318;2023-01-10T01:22:59;34;30;
64138;PMS5003;50435;43.700;-79.318;2023-01-10T01:25:26;37;29;
64138;PMS5003;50435;43.700;-79.318;2023-01-10T01:27:53;37;29;
64138;PMS5003;50435;43.700;-79.318;2023-01-10T01:30:21;38;32;
64138;PMS5003;50435;43.700;-79.318;2023-01-10T01:32:48;39;32;
64138;PMS5003;50435;43.700;-79.318;2023-01-10T01:35:16;34;29;
64138;PMS5003;50435;43.700;-79.318;2023-01-10T01:37:44;37;33;
64138;PMS5003;50435;43.700;-79.318;2023-01-10T01:40:11;31;26;
64138;PMS5003;50435;43.700;-79.318;2023-01-10T01:42:40;26;24;
64138;PMS5003;50435;43.700;-79.318;2023-01-10T01:45:25;33;31;
64138;PMS5003;50435;43.700;-79.318;2023-01-10T01:48:00;31;31;
64138;PMS5003;50435;43.700;-79.318;2023-01-10T01:50:35;32;31;
64138;PMS5003;50435;43.700;-79.318;2023-01-10T01:53:06;31;27;
64138;PMS5003;50435;43.700;-79.318;2023-01-10T01:55:38;25;25;
64138;PMS5003;50435;43.700;-79.318;2023-01-10T01:58:09;47;37;
64138;PMS5003;50435;43.700;-79.318;2023-01-10T02:00:41;36;34;
64138;PMS5003;50435;43.700;-79.318;2023-01-10T02:03:08;39;35;
64138;PMS5003;50435;43.700;-79.318;2023-01-10T02:05:38;38;33;
64138;PMS5003;50435;43.700;-79.318;2023-01-10T02:08:06;33;27;
64138;PMS5003;50435;43.700;-79.318;2023-01-10T02:10:35;35;29;
64138;PMS5003;50435;43.700;-79.318;2023-01-10T02:13:08;32;31;
64138;PMS5003;50435;43.700;-79.318;2023-01-10T02:15:39;37;28;
64138;PMS5003;50435;43.700;-79.318;2023-01-10T02:18:07;37;33;
64138;PMS5003;50435;43.700;-79.318;2023-01-10T02:20:37;27;27;
64138;PMS5003;50435;43.700;-79.318;2023-01-10T02:23:19;36;30;
64138;PMS5003;50435;43.700;-79.318;2023-01-10T02:26:53;30;28;
64138;PMS5003;50435;43.700;-79.318;2023-01-10T02:29:44;38;32;
64138;PMS5003;50435;43.700;-79.318;2023-01-10T02:33:03;38;31;
64138;PMS5003;50435;43.700;-79.318;2023-01-10T02:35:42;30;26;
64138;PMS5003;50435;43.700;-79.318;2023-01-10T02:38:20;30;29;
64138;PMS5003;50435;43.700;-79.318;2023-01-10T02:40:59;36;26;
64138;PMS5003;50435;43.700;-79.318;2023-01-10T02:43:33;35;31;
64138;PMS5003;50435;43.700;-79.318;2023-01-10T02:46:04;29;29;
64138;PMS5003;50435;43.700;-79.318;2023-01-10T02:48:35;36;31;
64138;PMS5003;50435;43.700;-79.318;2023-01-10T02:51:03;32;27;
64138;PMS5003;50435;43.700;-79.318;2023-01-10T02:53:35;42;35;
64138;PMS5003;50435;43.700;-79.318;2023-01-10T02:56:44;33;30;
64138;PMS5003;50435;43.700;-79.318;2023-01-10T03:00:30;35;33;
64138;PMS5003;50435;43.700;-79.318;2023-01-10T03:03:12;39;31;
64138;PMS5003;50435;43.700;-79.318;2023-01-10T03:05:51;33;29;
64138;PMS5003;50435;43.700;-79.318;2023-01-10T03:08:30;33;31;
64138;PMS5003;50435;43.700;-79.318;2023-01-10T03:11:04;37;33;
64138;PMS5003;50435;43.700;-79.318;2023-01-10T03:13:34;35;33;
64138;PMS5003;50435;43.700;-79.318;2023-01-10T03:16:10;32;32;
64138;PMS5003;50435;43.700;-79.318;2023-01-10T03:18:42;27;27;
64138;PMS5003;50435;43.700;-79.318;2023-01-10T03:21:14;32;32;
64138;PMS5003;50435;43.700;-79.318;2023-01-10T03:23:44;31;29;
64138;PMS5003;50435;43.700;-79.318;2023-01-10T03:26:13;31;28;
64138;PMS5003;50435;43.700;-79.318;2023-01-10T03:28:44;36;34;
64138;PMS5003;50435;43.700;-79.318;2023-01-10T03:31:16;37;32;
64138;PMS5003;50435;43.700;-79.318;2023-01-10T03:33:48;31;27;
64138;PMS5003;50435;43.700;-79.318;2023-01-10T03:36:19;35;26;
64138;PMS5003;50435;43.700;-79.318;2023-01-10T03:38:55;30;29;
64138;PMS5003;50435;43.700;-79.318;2023-01-10T03:41:30;33;30;
64138;PMS5003;50435;43.700;-79.318;2023-01-10T03:44:04;32;26;
64138;PMS5003;50435;43.700;-79.318;2023-01-10T03:46:40;38;32;
64138;PMS5003;50435;43.700;-79.318;2023-01-10T03:49:13;33;30;
64138;PMS5003;50435;43.700;-79.318;2023-01-10T03:51:42;33;31;
64138;PMS5003;50435;43.700;-79.318;2023-01-10T03:54:11;33;31;
64138;PMS5003;50435;43.700;-79.318;2023-01-10T03:56:43;33;30;
64138;PMS5003;50435;43.700;-79.318;2023-01-10T03:59:12;31;30;
64138;PMS5003;50435;43.700;-79.318;2023-01-10T04:01:40;36;31;
64138;PMS5003;50435;43.700;-79.318;2023-01-10T04:04:07;33;27;
64138;PMS5003;50435;43.700;-79.318;2023-01-10T04:06:35;26;26;
64138;PMS5003;50435;43.700;-79.318;2023-01-10T04:09:02;32;28;
64138;PMS5003;50435;43.700;-79.318;2023-01-10T04:11:30;33;29;
64138;PMS5003;50435;43.700;-79.318;2023-01-10T04:13:57;38;34;
64138;PMS5003;50435;43.700;-79.318;2023-01-10T04:16:25;37;30;
64138;PMS5003;50435;43.700;-79.318;2023-01-10T04:18:52;36;30;
64138;PMS5003;50435;43.700;-79.318;2023-01-10T04:21:19;36;31;
64138;PMS5003;50435;43.700;-79.318;2023-01-10T04:23:47;36;29;
64138;PMS5003;50435;43.700;-79.318;2023-01-10T04:26:15;34;29;
64138;PMS5003;50435;43.700;-79.318;2023-01-10T04:28:43;32;30;
64138;PMS5003;50435;43.700;-79.318;2023-01-10T04:31:10;39;32;
64138;PMS5003;50435;43.700;-79.318;2023-01-10T04:33:38;33;27;
64138;PMS5003;50435;43.700;-79.318;2023-01-10T04:36:06;27;23;
64138;PMS5003;50435;43.700;-79.318;2023-01-10T04:38:34;31;30;
64138;PMS5003;50435;43.700;-79.318;2023-01-10T04:41:02;29;27;
64138;PMS5003;50435;43.700;-79.318;2023-01-10T04:43:29;39;32;
64138;PMS5003;50435;43.700;-79.318;2023-01-10T04:45:57;31;27;
64138;PMS5003;50435;43.700;-79.318;2023-01-10T04:48:24;33;26;
64138;PMS5003;50435;43.700;-79.318;2023-01-10T04:50:53;34;31;
64138;PMS5003;50435;43.700;-79.318;2023-01-10T04:53:20;33;30;
64138;PMS5003;50435;43.700;-79.318;2023-01-10T04:55:48;35;31;
64138;PMS5003;50435;43.700;-79.318;2023-01-10T04:58:16;36;34;
64138;PMS5003;50435;43.700;-79.318;2023-01-10T05:00:43;30;27;
64138;PMS5003;50435;43.700;-79.318;2023-01-10T05:03:11;29;26;
64138;PMS5003;50435;43.700;-79.318;2023-01-10T05:05:38;36;32;
64138;PMS5003;50435;43.700;-79.318;2023-01-10T05:08:06;27;25;
64138;PMS5003;50435;43.700;-79.318;2023-01-10T05:10:33;27;26;
64138;PMS5003;50435;43.700;-79.318;2023-01-10T05:13:00;31;31;
64138;PMS5003;50435;43.700;-79.318;2023-01-10T05:15:28;32;29;
64138;PMS5003;50435;43.700;-79.318;2023-01-10T05:17:57;30;29;
64138;PMS5003;50435;43.700;-79.318;2023-01-10T05:20:26;34;30;
64138;PMS5003;50435;43.700;-79.318;2023-01-10T05:22:53;29;25;
64138;PMS5003;50435;43.700;-79.318;2023-01-10T05:25:21;25;25;
64138;PMS5003;50435;43.700;-79.318;2023-01-10T05:27:48;27;26;
64138;PMS5003;50435;43.700;-79.318;2023-01-10T05:30:15;25;24;
64138;PMS5003;50435;43.700;-79.318;2023-01-10T05:32:43;25;22;
64138;PMS5003;50435;43.700;-79.318;2023-01-10T05:35:11;30;28;
64138;PMS5003;50435;43.700;-79.318;2023-01-10T05:37:38;29;25;
64138;PMS5003;50435;43.700;-79.318;2023-01-10T05:40:06;27;27;
64138;PMS5003;50435;43.700;-79.318;2023-01-10T05:42:34;34;30;
64138;PMS5003;50435;43.700;-79.318;2023-01-10T05:45:02;32;31;
64138;PMS5003;50435;43.700;-79.318;2023-01-10T05:47:30;27;24;
64138;PMS5003;50435;43.700;-79.318;2023-01-10T05:49:58;30;26;
64138;PMS5003;50435;43.700;-79.318;2023-01-10T05:52:25;24;20;
64138;PMS5003;50435;43.700;-79.318;2023-01-10T05:54:53;33;33;
64138;PMS5003;50435;43.700;-79.318;2023-01-10T05:57:20;29;26;
64138;PMS5003;50435;43.700;-79.318;2023-01-10T05:59:47;31;22;
64138;PMS5003;50435;43.700;-79.318;2023-01-10T06:02:14;36;25;
64138;PMS5003;50435;43.700;-79.318;2023-01-10T06:04:42;28;26;
64138;PMS5003;50435;43.700;-79.318;2023-01-10T06:07:10;26;23;
64138;PMS5003;50435;43.700;-79.318;2023-01-10T06:09:37;29;24;
64138;PMS5003;50435;43.700;-79.318;2023-01-10T06:12:05;36;29;
64138;PMS5003;50435;43.700;-79.318;2023-01-10T06:14:33;27;23;
64138;PMS5003;50435;43.700;-79.318;2023-01-10T06:17:00;26;24;
64138;PMS5003;50435;43.700;-79.318;2023-01-10T06:19:28;29;24;
64138;PMS5003;50435;43.700;-79.318;2023-01-10T06:21:55;19;19;
64138;PMS5003;50435;43.700;-79.318;2023-01-10T06:24:23;24;23;
64138;PMS5003;50435;43.700;-79.318;2023-01-10T06:26:50;18;17;
64138;PMS5003;50435;43.700;-79.318;2023-01-10T06:29:18;25;23;
64138;PMS5003;50435;43.700;-79.318;2023-01-10T06:31:45;18;18;
64138;PMS5003;50435;43.700;-79.318;2023-01-10T06:34:12;19;17;
64138;PMS5003;50435;43.700;-79.318;2023-01-10T06:36:40;15;15;
64138;PMS5003;50435;43.700;-79.318;2023-01-10T06:39:08;17;16;
64138;PMS5003;50435;43.700;-79.318;2023-01-10T06:41:35;19;16;
64138;PMS5003;50435;43.700;-79.318;2023-01-10T06:44:02;10;9;
64138;PMS5003;50435;43.700;-79.318;2023-01-10T06:46:29;18;15;
64138;PMS5003;50435;43.700;-79.318;2023-01-10T06:48:57;14;14;
64138;PMS5003;50435;43.700;-79.318;2023-01-10T06:51:25;14;10;
64138;PMS5003;50435;43.700;-79.318;2023-01-10T06:53:52;12;10;
64138;PMS5003;50435;43.700;-79.318;2023-01-10T06:56:19;11;10;
64138;PMS5003;50435;43.700;-79.318;2023-01-10T06:58:47;10;10;
64138;PMS5003;50435;43.700;-79.318;2023-01-10T07:01:15;8;7;
64138;PMS5003;50435;43.700;-79.318;2023-01-10T07:03:44;8;5;
64138;PMS5003;50435;43.700;-79.318;2023-01-10T07:06:12;8;5;
64138;PMS5003;50435;43.700;-79.318;2023-01-10T07:08:41;8;7;
64138;PMS5003;50435;43.700;-79.318;2023-01-10T07:11:10;11;8;
64138;PMS5003;50435;43.700;-79.318;2023-01-10T07:13:39;7;7;
64138;PMS5003;50435;43.700;-79.318;2023-01-10T07:16:08;7;7;
64138;PMS5003;50435;43.700;-79.318;2023-01-10T07:18:37;8;7;
64138;PMS5003;50435;43.700;-79.318;2023-01-10T07:21:07;4;4;
64138;PMS5003;50435;43.700;-79.318;2023-01-10T07:23:35;5;4;
64138;PMS5003;50435;43.700;-79.318;2023-01-10T07:26:04;4;4;
64138;PMS5003;50435;43.700;-79.318;2023-01-10T07:28:33;6;6;
64138;PMS5003;50435;43.700;-79.318;2023-01-10T07:31:02;5;5;
64138;PMS5003;50435;43.700;-79.318;2023-01-10T07:33:31;4;4;
64138;PMS5003;50435;43.700;-79.318;2023-01-10T07:35:59;5;5;
64138;PMS5003;50435;43.700;-79.318;2023-01-10T07:38:26;4;4;
64138;PMS5003;50435;43.700;-79.318;2023-01-10T07:40:54;4;4;
64138;PMS5003;50435;43.700;-79.318;2023-01-10T07:43:22;4;3;
64138;PMS5003;50435;43.700;-79.318;2023-01-10T07:45:49;4;4;
64138;PMS5003;50435;43.700;-79.318;2023-01-10T07:48:16;3;3;
64138;PMS5003;50435;43.700;-79.318;2023-01-10T07:50:44;5;3;
64138;PMS5003;50435;43.700;-79.318;2023-01-10T07:53:11;7;3;
64138;PMS5003;50435;43.700;-79.318;2023-01-10T07:55:38;3;3;
64138;PMS5003;50435;43.700;-79.318;2023-01-10T07:58:06;4;4;
64138;PMS5003;50435;43.700;-79.318;2023-01-10T08:00:34;5;3;
64138;PMS5003;50435;43.700;-79.318;2023-01-10T08:03:01;3;3;
64138;PMS5003;50435;43.700;-79.318;2023-01-10T08:05:29;7;5;
64138;PMS5003;50435;43.700;-79.318;2023-01-10T08:07:56;3;3;
64138;PMS5003;50435;43.700;-79.318;2023-01-10T08:10:28;3;3;
64138;PMS5003;50435;43.700;-79.318;2023-01-10T08:12:56;5;4;
64138;PMS5003;50435;43.700;-79.318;2023-01-10T08:15:23;3;3;
64138;PMS5003;50435;43.700;-79.318;2023-01-10T08:17:50;4;4;
64138;PMS5003;50435;43.700;-79.318;2023-01-10T08:20:18;4;4;
64138;PMS5003;50435;43.700;-79.318;2023-01-10T08:22:45;3;3;
64138;PMS5003;50435;43.700;-79.318;2023-01-10T08:25:12;2;2;
64138;PMS5003;50435;43.700;-79.318;2023-01-10T08:27:40;3;3;
64138;PMS5003;50435;43.700;-79.318;2023-01-10T08:30:07;3;3;
64138;PMS5003;50435;43.700;-79.318;2023-01-10T08:32:36;5;3;
64138;PMS5003;50435;43.700;-79.318;2023-01-10T08:35:04;7;4;
64138;PMS5003;50435;43.700;-79.318;2023-01-10T08:37:31;3;3;
64138;PMS5003;50435;43.700;-79.318;2023-01-10T08:39:59;2;2;
64138;PMS5003;50435;43.700;-79.318;2023-01-10T08:42:26;2;2;
64138;PMS5003;50435;43.700;-79.318;2023-01-10T08:44:53;3;3;
64138;PMS5003;50435;43.700;-79.318;2023-01-10T08:47:20;1;1;
64138;PMS5003;50435;43.700;-79.318;2023-01-10T08:49:48;2;2;
64138;PMS5003;50435;43.700;-79.318;2023-01-10T08:52:15;2;2;
64138;PMS5003;50435;43.700;-79.318;2023-01-10T08:54:42;5;3;
64138;PMS5003;50435;43.700;-79.318;2023-01-10T08:57:10;3;2;
64138;PMS5003;50435;43.700;-79.318;2023-01-10T08:59:37;5;2;
64138;PMS5003;50435;43.700;-79.318;2023-01-10T09:02:05;3;3;
64138;PMS5003;50435;43.700;-79.318;2023-01-10T09:04:32;3;3;
64138;PMS5003;50435;43.700;-79.318;2023-01-10T09:06:59;3;3;
64138;PMS5003;50435;43.700;-79.318;2023-01-10T09:09:26;2;2;
64138;PMS5003;50435;43.700;-79.318;2023-01-10T09:11:54;2;2;
64138;PMS5003;50435;43.700;-79.318;2023-01-10T09:14:22;2;2;
64138;PMS5003;50435;43.700;-79.318;2023-01-10T09:16:49;2;2;
64138;PMS5003;50435;43.700;-79.318;2023-01-10T09:19:17;1;1;
64138;PMS5003;50435;43.700;-79.318;2023-01-10T09:21:44;3;3;
64138;PMS5003;50435;43.700;-79.318;2023-01-10T09:24:11;3;3;
64138;PMS5003;50435;43.700;-79.318;2023-01-10T09:26:39;3;3;
64138;PMS5003;50435;43.700;-79.318;2023-01-10T09:29:06;2;2;
64138;PMS5003;50435;43.700;-79.318;2023-01-10T09:31:33;2;2;
64138;PMS5003;50435;43.700;-79.318;2023-01-10T09:34:01;2;2;
64138;PMS5003;50435;43.700;-79.318;2023-01-10T09:36:28;2;2;
64138;PMS5003;50435;43.700;-79.318;2023-01-10T09:38:55;2;2;
64138;PMS5003;50435;43.700;-79.318;2023-01-10T09:41:27;4;2;
64138;PMS5003;50435;43.700;-79.318;2023-01-10T09:44:05;2;2;
64138;PMS5003;50435;43.700;-79.318;2023-01-10T09:46:45;2;2;
64138;PMS5003;50435;43.700;-79.318;2023-01-10T09:49:21;4;3;
64138;PMS5003;50435;43.700;-79.318;2023-01-10T09:51:59;4;3;
64138;PMS5003;50435;43.700;-79.318;2023-01-10T09:54:28;5;4;
64138;PMS5003;50435;43.700;-79.318;2023-01-10T09:56:59;1;1;
64138;PMS5003;50435;43.700;-79.318;2023-01-10T09:59:29;2;2;
64138;PMS5003;50435;43.700;-79.318;2023-01-10T10:02:03;4;3;
64138;PMS5003;50435;43.700;-79.318;2023-01-10T10:04:51;3;2;
64138;PMS5003;50435;43.700;-79.318;2023-01-10T10:07:29;3;2;
64138;PMS5003;50435;43.700;-79.318;2023-01-10T10:09:56;3;3;
64138;PMS5003;50435;43.700;-79.318;2023-01-10T10:12:25;1;1;
64138;PMS5003;50435;43.700;-79.318;2023-01-10T10:15:08;3;3;
64138;PMS5003;50435;43.700;-79.318;2023-01-10T10:17:46;1;1;
64138;PMS5003;50435;43.700;-79.318;2023-01-10T10:20:21;2;2;
64138;PMS5003;50435;43.700;-79.318;2023-01-10T10:23:01;2;1;
64138;PMS5003;50435;43.700;-79.318;2023-01-10T10:25:44;1;1;
64138;PMS5003;50435;43.700;-79.318;2023-01-10T10:28:31;3;3;
64138;PMS5003;50435;43.700;-79.318;2023-01-10T10:31:11;3;3;
64138;PMS5003;50435;43.700;-79.318;2023-01-10T10:33:46;2;2;
64138;PMS5003;50435;43.700;-79.318;2023-01-10T10:36:37;3;3;
64138;PMS5003;50435;43.700;-79.318;2023-01-10T10:39:10;2;2;
64138;PMS5003;50435;43.700;-79.318;2023-01-10T10:41:41;1;1;
64138;PMS5003;50435;43.700;-79.318;2023-01-10T10:44:17;4;4;
64138;PMS5003;50435;43.700;-79.318;2023-01-10T10:46:56;3;3;
64138;PMS5003;50435;43.700;-79.318;2023-01-10T10:49:28;2;2;
64138;PMS5003;50435;43.700;-79.318;2023-01-10T10:52:02;1;1;
64138;PMS5003;50435;43.700;-79.318;2023-01-10T10:54:40;2;2;
64138;PMS5003;50435;43.700;-79.318;2023-01-10T10:57:08;2;2;
64138;PMS5003;50435;43.700;-79.318;2023-01-10T10:59:37;2;2;
64138;PMS5003;50435;43.700;-79.318;2023-01-10T11:02:10;2;2;
64138;PMS5003;50435;43.700;-79.318;2023-01-10T11:04:48;3;3;
64138;PMS5003;50435;43.700;-79.318;2023-01-10T11:07:18;2;1;
64138;PMS5003;50435;43.700;-79.318;2023-01-10T11:09:47;1;1;
64138;PMS5003;50435;43.700;-79.318;2023-01-10T11:12:17;4;3;
64138;PMS5003;50435;43.700;-79.318;2023-01-10T11:14:47;1;0;
64138;PMS5003;50435;43.700;-79.318;2023-01-10T11:17:17;1;1;
64138;PMS5003;50435;43.700;-79.318;2023-01-10T11:19:53;2;2;
64138;PMS5003;50435;43.700;-79.318;2023-01-10T11:22:23;4;3;
64138;PMS5003;50435;43.700;-79.318;2023-01-10T11:24:53;2;2;
64138;PMS5003;50435;43.700;-79.318;2023-01-10T11:27:24;3;2;
64138;PMS5003;50435;43.700;-79.318;2023-01-10T11:29:55;2;2;
64138;PMS5003;50435;43.700;-79.318;2023-01-10T11:32:28;2;2;
64138;PMS5003;50435;43.700;-79.318;2023-01-10T11:34:59;1;1;
64138;PMS5003;50435;43.700;-79.318;2023-01-10T11:37:30;2;2;
64138;PMS5003;50435;43.700;-79.318;2023-01-10T11:40:12;1;1;
64138;PMS5003;50435;43.700;-79.318;2023-01-10T11:42:44;4;3;
64138;PMS5003;50435;43.700;-79.318;2023-01-10T11:45:19;1;1;
64138;PMS5003;50435;43.700;-79.318;2023-01-10T11:47:49;1;1;
64138;PMS5003;50435;43.700;-79.318;2023-01-10T11:50:20;3;2;
64138;PMS5003;50435;43.700;-79.318;2023-01-10T11:52:50;1;1;
64138;PMS5003;50435;43.700;-79.318;2023-01-10T11:55:19;2;1;
64138;PMS5003;50435;43.700;-79.318;2023-01-10T11:57:57;2;2;
64138;PMS5003;50435;43.700;-79.318;2023-01-10T12:00:30;3;3;
64138;PMS5003;50435;43.700;-79.318;2023-01-10T12:03:00;2;2;
64138;PMS5003;50435;43.700;-79.318;2023-01-10T12:05:29;2;2;
64138;PMS5003;50435;43.700;-79.318;2023-01-10T12:07:57;4;3;
64138;PMS5003;50435;43.700;-79.318;2023-01-10T12:10:27;3;3;
64138;PMS5003;50435;43.700;-79.318;2023-01-10T12:12:55;2;2;
64138;PMS5003;50435;43.700;-79.318;2023-01-10T12:15:25;1;1;
64138;PMS5003;50435;43.700;-79.318;2023-01-10T12:17:55;3;3;
64138;PMS5003;50435;43.700;-79.318;2023-01-10T12:20:24;2;2;
64138;PMS5003;50435;43.700;-79.318;2023-01-10T12:22:55;2;2;
64138;PMS5003;50435;43.700;-79.318;2023-01-10T12:25:27;3;3;
64138;PMS5003;50435;43.700;-79.318;2023-01-10T12:28:00;2;2;
64138;PMS5003;50435;43.700;-79.318;2023-01-10T12:30:29;3;2;
64138;PMS5003;50435;43.700;-79.318;2023-01-10T12:33:00;1;1;
64138;PMS5003;50435;43.700;-79.318;2023-01-10T12:35:35;3;2;
64138;PMS5003;50435;43.700;-79.318;2023-01-10T12:38:08;4;3;
64138;PMS5003;50435;43.700;-79.318;2023-01-10T12:40:48;1;1;
64138;PMS5003;50435;43.700;-79.318;2023-01-10T12:43:24;2;2;
64138;PMS5003;50435;43.700;-79.318;2023-01-10T12:46:01;3;3;
64138;PMS5003;50435;43.700;-79.318;2023-01-10T12:48:38;3;3;
64138;PMS5003;50435;43.700;-79.318;2023-01-10T12:51:16;3;3;
64138;PMS5003;50435;43.700;-79.318;2023-01-10T12:53:48;5;3;
64138;PMS5003;50435;43.700;-79.318;2023-01-10T12:56:21;4;3;
64138;PMS5003;50435;43.700;-79.318;2023-01-10T12:58:49;3;3;
64138;PMS5003;50435;43.700;-79.318;2023-01-10T13:01:22;1;1;
64138;PMS5003;50435;43.700;-79.318;2023-01-10T13:03:57;4;4;
64138;PMS5003;50435;43.700;-79.318;2023-01-10T13:06:29;4;4;
64138;PMS5003;50435;43.700;-79.318;2023-01-10T13:08:59;2;2;
64138;PMS5003;50435;43.700;-79.318;2023-01-10T13:11:34;3;3;
64138;PMS5003;50435;43.700;-79.318;2023-01-10T13:14:09;2;2;
64138;PMS5003;50435;43.700;-79.318;2023-01-10T13:16:42;4;4;
64138;PMS5003;50435;43.700;-79.318;2023-01-10T13:19:24;4;4;
64138;PMS5003;50435;43.700;-79.318;2023-01-10T13:22:25;3;3;
64138;PMS5003;50435;43.700;-79.318;2023-01-10T13:24:54;3;3;
64138;PMS5003;50435;43.700;-79.318;2023-01-10T13:27:22;4;3;
64138;PMS5003;50435;43.700;-79.318;2023-01-10T13:29:53;3;3;
64138;PMS5003;50435;43.700;-79.318;2023-01-10T13:32:21;3;3;
64138;PMS5003;50435;43.700;-79.318;2023-01-10T13:34:52;3;3;
64138;PMS5003;50435;43.700;-79.318;2023-01-10T13:37:23;3;3;
64138;PMS5003;50435;43.700;-79.318;2023-01-10T13:39:53;3;3;
64138;PMS5003;50435;43.700;-79.318;2023-01-10T13:42:27;4;4;
64138;PMS5003;50435;43.700;-79.318;2023-01-10T13:45:28;3;3;
64138;PMS5003;50435;43.700;-79.318;2023-01-10T13:47:57;3;3;
64138;PMS5003;50435;43.700;-79.318;2023-01-10T13:51:31;4;4;
64138;PMS5003;50435;43.700;-79.318;2023-01-10T13:53:58;3;3;
64138;PMS5003;50435;43.700;-79.318;2023-01-10T13:56:27;4;4;
64138;PMS5003;50435;43.700;-79.318;2023-01-10T13:58:58;4;2;
64138;PMS5003;50435;43.700;-79.318;2023-01-10T14:01:35;8;8;
64138;PMS5003;50435;43.700;-79.318;2023-01-10T14:04:04;2;2;
64138;PMS5003;50435;43.700;-79.318;2023-01-10T14:06:36;4;3;
64138;PMS5003;50435;43.700;-79.318;2023-01-10T14:09:04;4;4;
64138;PMS5003;50435;43.700;-79.318;2023-01-10T14:11:56;5;4;
64138;PMS5003;50435;43.700;-79.318;2023-01-10T14:14:28;4;3;
64138;PMS5003;50435;43.700;-79.318;2023-01-10T14:17:08;5;5;
64138;PMS5003;50435;43.700;-79.318;2023-01-10T14:19:39;8;5;
64138;PMS5003;50435;43.700;-79.318;2023-01-10T14:22:22;5;4;
64138;PMS5003;50435;43.700;-79.318;2023-01-10T14:24:53;3;3;
64138;PMS5003;50435;43.700;-79.318;2023-01-10T14:27:21;5;5;
64138;PMS5003;50435;43.700;-79.318;2023-01-10T14:29:50;5;5;
64138;PMS5003;50435;43.700;-79.318;2023-01-10T14:32:26;4;4;
64138;PMS5003;50435;43.700;-79.318;2023-01-10T14:35:00;5;5;
64138;PMS5003;50435;43.700;-79.318;2023-01-10T14:37:32;4;4;
64138;PMS5003;50435;43.700;-79.318;2023-01-10T14:40:09;8;8;
64138;PMS5003;50435;43.700;-79.318;2023-01-10T14:42:51;7;7;
64138;PMS5003;50435;43.700;-79.318;2023-01-10T14:45:25;7;6;
64138;PMS5003;50435;43.700;-79.318;2023-01-10T14:47:59;9;8;
64138;PMS5003;50435;43.700;-79.318;2023-01-10T14:50:47;5;5;
64138;PMS5003;50435;43.700;-79.318;2023-01-10T14:53:23;9;9;
64138;PMS5003;50435;43.700;-79.318;2023-01-10T14:55:52;9;8;
64138;PMS5003;50435;43.700;-79.318;2023-01-10T14:58:19;10;8;
64138;PMS5003;50435;43.700;-79.318;2023-01-10T15:00:48;7;7;
64138;PMS5003;50435;43.700;-79.318;2023-01-10T15:03:17;5;5;
64138;PMS5003;50435;43.700;-79.318;2023-01-10T15:05:47;8;8;
64138;PMS5003;50435;43.700;-79.318;2023-01-10T15:08:20;11;9;
64138;PMS5003;50435;43.700;-79.318;2023-01-10T15:10:49;7;7;
64138;PMS5003;50435;43.700;-79.318;2023-01-10T15:13:21;10;10;
64138;PMS5003;50435;43.700;-79.318;2023-01-10T15:15:51;10;10;
64138;PMS5003;50435;43.700;-79.318;2023-01-10T15:18:26;10;9;
64138;PMS5003;50435;43.700;-79.318;2023-01-10T15:20:56;11;10;
64138;PMS5003;50435;43.700;-79.318;2023-01-10T15:23:31;9;9;
64138;PMS5003;50435;43.700;-79.318;2023-01-10T15:26:01;10;10;
64138;PMS5003;50435;43.700;-79.318;2023-01-10T15:28:32;11;11;
64138;PMS5003;50435;43.700;-79.318;2023-01-10T15:31:00;10;9;
64138;PMS5003;50435;43.700;-79.318;2023-01-10T15:33:29;8;7;
64138;PMS5003;50435;43.700;-79.318;2023-01-10T15:36:02;10;9;
64138;PMS5003;50435;43.700;-79.318;2023-01-10T15:38:31;8;8;
64138;PMS5003;50435;43.700;-79.318;2023-01-10T15:41:03;12;9;
64138;PMS5003;50435;43.700;-79.318;2023-01-10T15:43:33;9;8;
64138;PMS5003;50435;43.700;-79.318;2023-01-10T15:46:02;8;8;
64138;PMS5003;50435;43.700;-79.318;2023-01-10T15:48:32;8;8;
64138;PMS5003;50435;43.700;-79.318;2023-01-10T15:51:02;12;11;
64138;PMS5003;50435;43.700;-79.318;2023-01-10T15:53:55;12;9;
64138;PMS5003;50435;43.700;-79.318;2023-01-10T15:56:26;11;11;
64138;PMS5003;50435;43.700;-79.318;2023-01-10T15:58:55;11;9;
64138;PMS5003;50435;43.700;-79.318;2023-01-10T16:01:24;16;15;
64138;PMS5003;50435;43.700;-79.318;2023-01-10T16:03:52;10;8;
64138;PMS5003;50435;43.700;-79.318;2023-01-10T16:06:23;10;10;
64138;PMS5003;50435;43.700;-79.318;2023-01-10T16:08:54;11;11;
64138;PMS5003;50435;43.700;-79.318;2023-01-10T16:11:25;15;12;
64138;PMS5003;50435;43.700;-79.318;2023-01-10T16:13:58;9;9;
64138;PMS5003;50435;43.700;-79.318;2023-01-10T16:16:26;14;12;
64138;PMS5003;50435;43.700;-79.318;2023-01-10T16:18:54;10;10;
64138;PMS5003;50435;43.700;-79.318;2023-01-10T16:21:21;10;10;
64138;PMS5003;50435;43.700;-79.318;2023-01-10T16:23:49;9;9;
64138;PMS5003;50435;43.700;-79.318;2023-01-10T16:26:16;14;11;
64138;PMS5003;50435;43.700;-79.318;2023-01-10T16:28:43;9;9;